Time;durP1;ratioP1;P1;durP2;ratioP2;P2;SDS_P1;SDS_P2;PMS_P1;PMS_P2;Temp;Humidity;BMP_temperature;BMP_pressure;BME280_temperature;BME280_humidity;BME280_pressure;Samples;Min_cycle;Max_cycle;Signal;HPM_P1;HPM_P2
2021/07/04 00:03:38;;;;;;;9.50;5.40;;;;;;;;;;8313100;28;20598;-69
2021/07/04 00:07:44;;;;;;;11.13;5.22;;;;;;;;;;8324585;28;20371;-70
2021/07/04 00:11:50;;;;;;;14.15;5.53;;;;;;;;;;8326852;28;20351;-69
2021/07/04 00:15:55;;;;;;;10.32;5.90;;;;;;;;;;8324841;28;20052;-69
2021/07/04 00:20:01;;;;;;;6.53;4.93;;;;;;;;;;8325007;28;20467;-70
2021/07/04 00:24:06;;;;;;;7.78;5.70;;;;;;;;;;8326793;28;20459;-69
2021/07/04 00:28:13;;;;;;;7.85;5.22;;;;;;;;;;8326095;28;20483;-70
2021/07/04 00:32:18;;;;;;;7.70;5.22;;;;;;;;;;8325022;28;20063;-70
2021/07/04 00:36:34;;;;;;;10.43;5.00;;;;;;;;;;8325597;28;20075;-70
2021/07/04 00:40:42;;;;;;;7.15;4.80;;;;;;;;;;8324721;28;20351;-70
2021/07/04 00:44:48;;;;;;;5.63;4.65;;;;;;;;;;8324153;28;20051;-69
2021/07/04 00:48:54;;;;;;;7.22;5.20;;;;;;;;;;8323930;28;20487;-70
2021/07/04 00:53:03;;;;;;;8.63;5.13;;;;;;;;;;8307301;28;20402;-71
2021/07/04 00:57:12;;;;;;;6.50;5.13;;;;;;;;;;8309542;28;20067;-70
2021/07/04 01:01:17;;;;;;;9.52;5.30;;;;;;;;;;8289771;28;20386;-69
2021/07/04 01:05:29;;;;;;;8.57;5.30;;;;;;;;;;8325617;28;20526;-70
2021/07/04 01:09:34;;;;;;;7.88;5.22;;;;;;;;;;8321195;28;20497;-70
2021/07/04 01:13:39;;;;;;;8.20;5.95;;;;;;;;;;8339452;28;20070;-70
2021/07/04 01:17:50;;;;;;;8.90;5.50;;;;;;;;;;8325802;28;20462;-69
2021/07/04 01:21:59;;;;;;;10.38;5.30;;;;;;;;;;8322251;28;20044;-69
2021/07/04 01:26:06;;;;;;;6.45;4.72;;;;;;;;;;8322741;28;20044;-70
2021/07/04 01:30:14;;;;;;;10.00;5.35;;;;;;;;;;8321267;28;20479;-72
2021/07/04 01:34:19;;;;;;;8.40;5.72;;;;;;;;;;8323129;28;20355;-70
2021/07/04 01:38:25;;;;;;;10.27;5.47;;;;;;;;;;8289023;28;20481;-70
2021/07/04 01:42:31;;;;;;;7.40;5.07;;;;;;;;;;8324200;28;20036;-70
2021/07/04 01:46:37;;;;;;;9.65;5.18;;;;;;;;;;8322516;28;20355;-71
2021/07/04 01:50:50;;;;;;;9.05;5.90;;;;;;;;;;8323255;28;20067;-70
2021/07/04 01:55:10;;;;;;;8.43;5.78;;;;;;;;;;8322352;28;20486;-70
2021/07/04 01:59:18;;;;;;;9.65;5.25;;;;;;;;;;8322132;28;20588;-69
2021/07/04 02:03:43;;;;;;;6.78;5.00;;;;;;;;;;8321802;28;20355;-70
2021/07/04 02:07:53;;;;;;;7.22;5.05;;;;;;;;;;8321694;28;20325;-70
2021/07/04 02:11:58;;;;;;;10.70;5.90;;;;;;;;;;8320977;28;20052;-70
2021/07/04 02:16:12;;;;;;;9.43;6.05;;;;;;;;;;8320851;28;20363;-70
2021/07/04 02:20:39;;;;;;;12.23;5.20;;;;;;;;;;8307832;28;20370;-71
2021/07/04 02:24:53;;;;;;;6.47;5.07;;;;;;;;;;8329715;28;20052;-71
2021/07/04 02:29:11;;;;;;;15.20;5.60;;;;;;;;;;8330319;28;20477;-69
2021/07/04 02:33:23;;;;;;;14.68;6.40;;;;;;;;;;8329300;28;20374;-70
2021/07/04 02:37:28;;;;;;;16.05;5.80;;;;;;;;;;8328550;28;20356;-70
2021/07/04 02:41:44;;;;;;;9.98;7.10;;;;;;;;;;8327077;28;20451;-69
2021/07/04 02:45:54;;;;;;;10.57;6.93;;;;;;;;;;8327970;28;20071;-69
2021/07/04 02:49:59;;;;;;;9.38;6.38;;;;;;;;;;8327789;28;20374;-70
2021/07/04 02:54:08;;;;;;;11.60;6.97;;;;;;;;;;8311041;28;20383;-70
2021/07/04 02:58:50;;;;;;;10.35;6.40;;;;;;;;;;8316182;28;20442;-70
2021/07/04 03:02:57;;;;;;;15.32;7.55;;;;;;;;;;8327808;28;20356;-70
2021/07/04 03:07:03;;;;;;;10.32;6.55;;;;;;;;;;8327867;28;20395;-70
2021/07/04 03:11:12;;;;;;;10.23;6.97;;;;;;;;;;8326185;28;20479;-69
2021/07/04 03:15:19;;;;;;;11.68;7.20;;;;;;;;;;8310106;28;20066;-70
2021/07/04 03:19:24;;;;;;;13.32;6.88;;;;;;;;;;8326656;28;20348;-69
2021/07/04 03:23:30;;;;;;;10.55;6.70;;;;;;;;;;8310654;28;20362;-69
2021/07/04 03:27:42;;;;;;;8.45;6.10;;;;;;;;;;8327560;28;20379;-70
2021/07/04 03:31:49;;;;;;;9.82;6.25;;;;;;;;;;8309135;28;20070;-70
2021/07/04 03:35:54;;;;;;;13.15;6.40;;;;;;;;;;8325590;28;20443;-69
2021/07/04 03:40:01;;;;;;;9.43;6.72;;;;;;;;;;8326665;28;20474;-70
2021/07/04 03:44:07;;;;;;;10.75;7.38;;;;;;;;;;8326307;28;20075;-69
2021/07/04 03:48:17;;;;;;;11.65;7.50;;;;;;;;;;8326263;28;20052;-70
2021/07/04 03:52:31;;;;;;;10.05;7.15;;;;;;;;;;8325008;28;20455;-69
2021/07/04 03:56:36;;;;;;;11.40;7.20;;;;;;;;;;8327263;28;20397;-69
2021/07/04 04:00:44;;;;;;;12.52;7.60;;;;;;;;;;8325115;28;20039;-68
2021/07/04 04:04:59;;;;;;;12.75;7.43;;;;;;;;;;8326069;28;20497;-70
2021/07/04 04:09:05;;;;;;;12.07;7.72;;;;;;;;;;8324608;28;20459;-69
2021/07/04 04:13:19;;;;;;;10.48;7.25;;;;;;;;;;8325061;28;20371;-68
2021/07/04 04:17:32;;;;;;;12.85;7.32;;;;;;;;;;8328219;28;20048;-70
2021/07/04 04:21:38;;;;;;;13.10;7.97;;;;;;;;;;8308780;28;20044;-70
2021/07/04 04:25:45;;;;;;;12.35;6.45;;;;;;;;;;8309748;28;20413;-69
2021/07/04 04:29:51;;;;;;;10.63;6.65;;;;;;;;;;8325902;28;20455;-70
2021/07/04 04:33:59;;;;;;;9.77;7.05;;;;;;;;;;8325912;28;20475;-70
2021/07/04 04:38:05;;;;;;;9.68;6.40;;;;;;;;;;8323627;28;20362;-70
2021/07/04 04:42:10;;;;;;;9.63;6.75;;;;;;;;;;8306967;28;20377;-69
2021/07/04 04:46:16;;;;;;;10.07;6.78;;;;;;;;;;8325528;28;20075;-70
2021/07/04 04:50:21;;;;;;;10.25;7.53;;;;;;;;;;8324558;28;20483;-69
2021/07/04 04:54:27;;;;;;;11.30;7.15;;;;;;;;;;8308663;28;20067;-69
2021/07/04 04:58:32;;;;;;;13.45;7.07;;;;;;;;;;8323132;28;20485;-68
2021/07/04 05:02:37;;;;;;;11.57;7.80;;;;;;;;;;8325581;28;20486;-68
2021/07/04 05:06:43;;;;;;;14.15;7.88;;;;;;;;;;8323273;28;20482;-68
2021/07/04 05:10:48;;;;;;;9.70;6.68;;;;;;;;;;8323498;28;20331;-68
2021/07/04 05:14:54;;;;;;;17.13;7.65;;;;;;;;;;8305801;28;20574;-69
2021/07/04 05:19:05;;;;;;;12.90;6.28;;;;;;;;;;8322677;28;20055;-69
2021/07/04 05:23:10;;;;;;;12.02;6.03;;;;;;;;;;8323992;28;20470;-69
2021/07/04 05:27:15;;;;;;;9.75;6.25;;;;;;;;;;8323645;28;20352;-69
2021/07/04 05:31:24;;;;;;;10.27;6.03;;;;;;;;;;8306167;28;20328;-68
2021/07/04 05:35:28;;;;;;;8.00;6.10;;;;;;;;;;8324055;28;20478;-69
2021/07/04 05:39:32;;;;;;;16.20;6.07;;;;;;;;;;8322671;28;20478;-68
2021/07/04 05:43:40;;;;;;;12.98;5.20;;;;;;;;;;8322545;28;20459;-68
2021/07/04 05:47:46;;;;;;;9.80;5.72;;;;;;;;;;8320972;28;20056;-69
2021/07/04 05:51:51;;;;;;;8.40;5.55;;;;;;;;;;8323338;28;20067;-69
2021/07/04 05:55:57;;;;;;;8.48;4.95;;;;;;;;;;8322960;28;20592;-69
2021/07/04 06:00:02;;;;;;;8.98;5.45;;;;;;;;;;8323003;28;20493;-68
2021/07/04 06:04:19;;;;;;;7.00;4.13;;;;;;;;;;8322117;28;20040;-69
2021/07/04 06:08:24;;;;;;;7.57;4.05;;;;;;;;;;8321141;28;20370;-69
2021/07/04 06:12:29;;;;;;;6.53;3.90;;;;;;;;;;8323186;28;20040;-70
2021/07/04 06:16:34;;;;;;;5.65;3.42;;;;;;;;;;8321991;28;20473;-69
2021/07/04 06:20:40;;;;;;;11.32;3.08;;;;;;;;;;8320986;28;20452;-68
2021/07/04 06:24:45;;;;;;;4.28;2.65;;;;;;;;;;8320002;28;20043;-69
2021/07/04 06:28:51;;;;;;;6.53;3.05;;;;;;;;;;8320683;28;20370;-69
2021/07/04 06:32:56;;;;;;;3.58;2.22;;;;;;;;;;8322414;28;20036;-69
2021/07/04 06:37:01;;;;;;;5.03;3.30;;;;;;;;;;8322007;28;20478;-70
2021/07/04 06:41:06;;;;;;;4.75;2.95;;;;;;;;;;8321423;28;20501;-70
2021/07/04 06:45:13;;;;;;;4.03;2.72;;;;;;;;;;8322734;28;20040;-70
2021/07/04 06:49:18;;;;;;;5.00;2.87;;;;;;;;;;8320326;28;20044;-69
2021/07/04 06:53:24;;;;;;;4.50;3.13;;;;;;;;;;8322132;28;20482;-70
2021/07/04 06:57:29;;;;;;;4.90;2.33;;;;;;;;;;8319595;28;20378;-70
2021/07/04 07:01:34;;;;;;;5.00;2.67;;;;;;;;;;8322599;28;20463;-71
2021/07/04 07:05:40;;;;;;;5.28;2.90;;;;;;;;;;8322306;28;20478;-69
2021/07/04 07:09:45;;;;;;;5.45;2.75;;;;;;;;;;8326904;28;20478;-69
2021/07/04 07:13:50;;;;;;;6.28;2.78;;;;;;;;;;8327953;28;20044;-69
2021/07/04 07:17:56;;;;;;;15.02;3.00;;;;;;;;;;8327913;28;20048;-70
2021/07/04 07:22:01;;;;;;;4.40;2.13;;;;;;;;;;8325304;28;20340;-69
2021/07/04 07:26:09;;;;;;;4.82;2.58;;;;;;;;;;8309920;28;20466;-70
2021/07/04 07:30:16;;;;;;;10.57;2.78;;;;;;;;;;8324567;28;20362;-70
2021/07/04 07:34:21;;;;;;;2.70;2.30;;;;;;;;;;8326938;28;20379;-70
2021/07/04 07:38:27;;;;;;;12.18;2.45;;;;;;;;;;8327587;28;20067;-70
2021/07/04 07:42:35;;;;;;;5.93;2.92;;;;;;;;;;8326432;28;20404;-70
2021/07/04 07:46:42;;;;;;;7.75;2.55;;;;;;;;;;8325169;28;20095;-70
2021/07/04 07:50:47;;;;;;;4.10;2.65;;;;;;;;;;8325270;28;20060;-69
2021/07/04 07:54:52;;;;;;;3.65;2.50;;;;;;;;;;8325551;28;20451;-70
2021/07/04 07:58:58;;;;;;;4.30;2.90;;;;;;;;;;8327193;28;20336;-69
2021/07/04 08:03:04;;;;;;;3.90;2.40;;;;;;;;;;8325802;28;20352;-70
2021/07/04 08:07:09;;;;;;;3.85;2.30;;;;;;;;;;8325954;28;20071;-71
2021/07/04 08:11:14;;;;;;;3.72;2.20;;;;;;;;;;8326760;28;20478;-70
2021/07/04 08:15:20;;;;;;;5.22;2.35;;;;;;;;;;8323519;28;20505;-71
2021/07/04 08:19:27;;;;;;;3.55;2.10;;;;;;;;;;8325611;28;20467;-71
2021/07/04 08:23:32;;;;;;;2.57;2.20;;;;;;;;;;8329333;28;20339;-70
2021/07/04 08:27:38;;;;;;;5.38;2.42;;;;;;;;;;8323858;28;20106;-71
2021/07/04 08:31:44;;;;;;;4.00;2.50;;;;;;;;;;8323955;28;20390;-70
2021/07/04 08:35:49;;;;;;;4.30;2.00;;;;;;;;;;8325241;28;20490;-70
2021/07/04 08:39:54;;;;;;;4.03;2.63;;;;;;;;;;8307426;28;20503;-70
2021/07/04 08:44:09;;;;;;;3.58;2.17;;;;;;;;;;8325263;28;20343;-71
2021/07/04 08:48:14;;;;;;;5.13;2.33;;;;;;;;;;8323570;28;20078;-70
2021/07/04 08:52:20;;;;;;;2.85;2.10;;;;;;;;;;8326131;28;20476;-70
2021/07/04 08:56:25;;;;;;;3.50;2.22;;;;;;;;;;8323346;28;20390;-71
2021/07/04 09:00:30;;;;;;;4.68;2.25;;;;;;;;;;8325445;28;20040;-71
2021/07/04 09:04:36;;;;;;;3.58;1.98;;;;;;;;;;8324289;28;20039;-71
2021/07/04 09:08:42;;;;;;;3.22;2.10;;;;;;;;;;8324760;28;20398;-71
2021/07/04 09:12:55;;;;;;;3.97;1.95;;;;;;;;;;8324826;28;20478;-71
2021/07/04 09:17:01;;;;;;;5.30;2.55;;;;;;;;;;8322923;28;20066;-71
2021/07/04 09:21:25;;;;;;;3.05;1.80;;;;;;;;;;8324263;28;20075;-70
2021/07/04 09:25:36;;;;;;;2.95;2.08;;;;;;;;;;8324891;28;20467;-71
2021/07/04 09:29:54;;;;;;;2.15;1.90;;;;;;;;;;8304349;28;20072;-71
2021/07/04 09:34:13;;;;;;;4.68;2.30;;;;;;;;;;8325079;28;20466;-72
2021/07/04 09:38:19;;;;;;;4.40;2.28;;;;;;;;;;8323713;28;20443;-70
2021/07/04 09:42:24;;;;;;;3.70;2.20;;;;;;;;;;8321806;28;20497;-71
2021/07/04 09:46:29;;;;;;;4.00;2.25;;;;;;;;;;8322482;28;20332;-70
2021/07/04 09:50:42;;;;;;;4.70;2.08;;;;;;;;;;8321982;28;20486;-71
2021/07/04 09:55:00;;;;;;;4.22;2.10;;;;;;;;;;8321936;28;20520;-71
2021/07/04 09:59:07;;;;;;;2.50;1.95;;;;;;;;;;8322296;28;20062;-71
2021/07/04 10:03:18;;;;;;;5.32;2.10;;;;;;;;;;8322519;28;20354;-71
2021/07/04 10:07:32;;;;;;;3.58;2.22;;;;;;;;;;8323459;28;20486;-73
2021/07/04 10:11:38;;;;;;;2.80;2.05;;;;;;;;;;8322006;28;20374;-69
2021/07/04 10:15:43;;;;;;;3.53;2.20;;;;;;;;;;8320579;28;20477;-71
2021/07/04 10:19:50;;;;;;;5.13;2.38;;;;;;;;;;8323956;28;20343;-71
2021/07/04 10:23:57;;;;;;;;;;;;;;;;;;8304814;28;20036;-70
2021/07/04 10:28:04;;;;;;;4.40;1.98;;;;;;;;;;8321039;28;20227;-71
2021/07/04 10:32:12;;;;;;;4.93;1.90;;;;;;;;;;8320889;28;20040;-71
2021/07/04 10:36:21;;;;;;;3.22;1.92;;;;;;;;;;8321754;28;20339;-70
2021/07/04 10:40:36;;;;;;;7.70;2.00;;;;;;;;;;8321256;28;20063;-70
2021/07/04 10:44:43;;;;;;;2.75;2.15;;;;;;;;;;8312427;28;20067;-69
2021/07/04 10:48:59;;;;;;;2.72;1.80;;;;;;;;;;8326641;28;20478;-70
2021/07/04 10:53:04;;;;;;;1.95;1.75;;;;;;;;;;8325869;28;20071;-70
2021/07/04 10:57:21;;;;;;;2.90;2.17;;;;;;;;;;8327874;28;20347;-70
2021/07/04 11:01:58;;;;;;;2.22;1.77;;;;;;;;;;8310157;28;20348;-71
2021/07/04 11:06:04;;;;;;;9.98;1.95;;;;;;;;;;8326727;28;20352;-71
2021/07/04 11:10:09;;;;;;;5.68;1.92;;;;;;;;;;8326352;28;20455;-70
2021/07/04 11:14:12;;;;;;;2.15;1.65;;;;;;;;;;8327283;28;20487;-71
2021/07/04 11:18:19;;;;;;;4.88;1.55;;;;;;;;;;8325526;28;20371;-69
2021/07/04 11:22:54;;;;;;;3.25;1.85;;;;;;;;;;8325843;28;20463;-69
2021/07/04 11:27:26;;;;;;;3.77;2.03;;;;;;;;;;8326956;28;20466;-68
2021/07/04 11:31:32;;;;;;;3.10;1.63;;;;;;;;;;8327173;28;20367;-69
2021/07/04 11:35:43;;;;;;;2.30;1.63;;;;;;;;;;8326861;28;20071;-68
2021/07/04 11:39:59;;;;;;;2.30;1.88;;;;;;;;;;8325887;28;20044;-68
2021/07/04 11:44:24;;;;;;;3.30;1.60;;;;;;;;;;8325261;28;20371;-69
2021/07/04 11:48:55;;;;;;;5.95;3.88;;;;;;;;;;8326925;28;20366;-71
2021/07/04 11:53:07;;;;;;;5.90;1.98;;;;;;;;;;8326410;28;20036;-70
2021/07/04 11:57:32;;;;;;;3.42;2.10;;;;;;;;;;8325265;28;20089;-68
2021/07/04 12:01:56;;;;;;;4.38;2.15;;;;;;;;;;8326014;28;20481;-68
2021/07/04 12:06:08;;;;;;;4.80;2.22;;;;;;;;;;8325830;28;20459;-69
2021/07/04 12:10:13;;;;;;;6.38;1.98;;;;;;;;;;8326052;28;20337;-68
2021/07/04 12:14:23;;;;;;;2.80;1.80;;;;;;;;;;8323054;28;20467;-69
2021/07/04 12:18:28;;;;;;;2.65;1.65;;;;;;;;;;8325526;28;20517;-69
2021/07/04 12:22:55;;;;;;;7.20;1.98;;;;;;;;;;8324647;28;20469;-70
2021/07/04 12:27:01;;;;;;;3.83;2.00;;;;;;;;;;8325970;28;20063;-68
2021/07/04 12:31:06;;;;;;;2.75;1.90;;;;;;;;;;8326198;28;20390;-70
2021/07/04 12:35:50;;;;;;;2.97;2.03;;;;;;;;;;8324320;28;20457;-69
2021/07/04 12:40:16;;;;;;;3.35;2.20;;;;;;;;;;8326761;28;20438;-68
2021/07/04 12:44:22;;;;;;;4.45;2.10;;;;;;;;;;8324090;28;20508;-69
2021/07/04 12:48:30;;;;;;;3.58;2.13;;;;;;;;;;8324314;28;20487;-69
2021/07/04 12:52:37;;;;;;;4.95;2.08;;;;;;;;;;8307635;28;20325;-69
2021/07/04 12:56:48;;;;;;;2.27;2.07;;;;;;;;;;8325296;28;20459;-70
2021/07/04 13:01:17;;;;;;;2.55;1.98;;;;;;;;;;8323286;28;20471;-68
2021/07/04 13:05:39;;;;;;;2.13;1.90;;;;;;;;;;8321289;28;20044;-69
2021/07/04 13:09:45;;;;;;;4.05;2.05;;;;;;;;;;8326544;28;20047;-71
2021/07/04 13:14:00;;;;;;;2.75;1.95;;;;;;;;;;8326688;28;20707;-70
2021/07/04 13:18:06;;;;;;;3.00;2.30;;;;;;;;;;8322441;28;20048;-70
2021/07/04 13:22:33;;;;;;;3.50;2.20;;;;;;;;;;8323954;28;20044;-70
2021/07/04 13:26:38;;;;;;;2.80;2.03;;;;;;;;;;8324183;28;20427;-70
2021/07/04 13:30:51;;;;;;;2.72;1.80;;;;;;;;;;8323946;28;20078;-67
2021/07/04 13:34:56;;;;;;;2.40;1.90;;;;;;;;;;8306064;28;20337;-70
2021/07/04 13:39:06;;;;;;;6.18;2.25;;;;;;;;;;8323891;28;20520;-70
2021/07/04 13:43:12;;;;;;;2.10;1.70;;;;;;;;;;8323671;28;20389;-70
2021/07/04 13:47:18;;;;;;;2.30;1.90;;;;;;;;;;8322637;28;20078;-71
2021/07/04 13:51:24;;;;;;;4.95;1.52;;;;;;;;;;8321285;28;20397;-69
2021/07/04 13:55:29;;;;;;;3.15;1.85;;;;;;;;;;8323746;28;20044;-69
2021/07/04 13:59:35;;;;;;;4.03;1.83;;;;;;;;;;8320533;28;20048;-70
2021/07/04 14:03:40;;;;;;;2.53;1.83;;;;;;;;;;8288049;28;20367;-70
2021/07/04 14:07:45;;;;;;;2.22;1.65;;;;;;;;;;8322714;28;20048;-71
2021/07/04 14:11:50;;;;;;;2.60;1.70;;;;;;;;;;8322776;28;20393;-70
2021/07/04 14:15:55;;;;;;;3.67;1.77;;;;;;;;;;8324154;28;20461;-70
2021/07/04 14:20:01;;;;;;;4.57;1.88;;;;;;;;;;8327920;28;20473;-68
2021/07/04 14:24:06;;;;;;;4.45;2.13;;;;;;;;;;8328980;28;20063;-68
2021/07/04 14:28:12;;;;;;;2.90;1.70;;;;;;;;;;8310437;28;20099;-71
2021/07/04 14:32:17;;;;;;;2.35;1.75;;;;;;;;;;8329473;28;20382;-71
2021/07/04 14:36:22;;;;;;;4.57;1.90;;;;;;;;;;8327601;28;20508;-70
2021/07/04 14:40:28;;;;;;;2.20;1.75;;;;;;;;;;8329977;28;20481;-69
2021/07/04 14:44:33;;;;;;;1.75;1.45;;;;;;;;;;8328561;28;20374;-69
2021/07/04 14:48:39;;;;;;;2.55;1.67;;;;;;;;;;8328720;28;20347;-68
2021/07/04 14:52:45;;;;;;;3.75;1.55;;;;;;;;;;8327797;28;20478;-71
2021/07/04 14:56:51;;;;;;;2.55;1.67;;;;;;;;;;8327868;28;20366;-70
2021/07/04 15:00:56;;;;;;;2.78;1.85;;;;;;;;;;8326797;28;20467;-70
2021/07/04 15:05:02;;;;;;;2.55;1.80;;;;;;;;;;8327590;28;20485;-70
2021/07/04 15:09:07;;;;;;;1.92;1.58;;;;;;;;;;8329083;28;20373;-73
2021/07/04 15:13:13;;;;;;;2.45;1.75;;;;;;;;;;8327730;28;20052;-70
2021/07/04 15:17:18;;;;;;;3.30;2.20;;;;;;;;;;8327773;28;20040;-70
2021/07/04 15:21:24;;;;;;;2.25;1.40;;;;;;;;;;8327903;28;20036;-71
2021/07/04 15:25:29;;;;;;;7.43;2.00;;;;;;;;;;8329289;28;20466;-71
2021/07/04 15:29:34;;;;;;;3.70;1.70;;;;;;;;;;8325275;28;20465;-71
2021/07/04 15:33:40;;;;;;;2.28;1.60;;;;;;;;;;8326766;28;20490;-68
2021/07/04 15:37:45;;;;;;;3.67;1.67;;;;;;;;;;8327544;28;20497;-68
2021/07/04 15:41:51;;;;;;;2.58;1.70;;;;;;;;;;8327406;28;20369;-68
2021/07/04 15:45:58;;;;;;;4.18;2.22;;;;;;;;;;8326045;28;20504;-67
2021/07/04 15:50:06;;;;;;;3.53;2.03;;;;;;;;;;8326964;28;20071;-69
2021/07/04 15:54:12;;;;;;;1.90;1.40;;;;;;;;;;8325499;28;20324;-69
2021/07/04 15:58:18;;;;;;;3.10;1.73;;;;;;;;;;8308691;28;20471;-69
2021/07/04 16:02:23;;;;;;;2.63;1.73;;;;;;;;;;8326642;28;20359;-70
2021/07/04 16:06:29;;;;;;;2.15;1.55;;;;;;;;;;8326341;28;20063;-69
2021/07/04 16:10:40;;;;;;;2.38;1.60;;;;;;;;;;8324027;28;20470;-68
2021/07/04 16:14:45;;;;;;;3.17;1.90;;;;;;;;;;8324417;28;20040;-68
2021/07/04 16:18:50;;;;;;;3.30;2.08;;;;;;;;;;8326852;28;20040;-68
2021/07/04 16:22:56;;;;;;;2.55;1.48;;;;;;;;;;8323995;28;20089;-68
2021/07/04 16:27:01;;;;;;;4.20;1.58;;;;;;;;;;8307407;28;20115;-69
2021/07/04 16:31:07;;;;;;;2.33;1.83;;;;;;;;;;8322778;28;20506;-69
2021/07/04 16:35:13;;;;;;;3.30;1.67;;;;;;;;;;8323703;28;20493;-69
2021/07/04 16:39:19;;;;;;;2.80;1.83;;;;;;;;;;8323598;28;20347;-68
2021/07/04 16:43:24;;;;;;;3.38;1.70;;;;;;;;;;8327084;28;20054;-69
2021/07/04 16:47:30;;;;;;;2.05;1.55;;;;;;;;;;8325929;28;20386;-69
2021/07/04 16:51:36;;;;;;;4.50;1.67;;;;;;;;;;8323215;28;20491;-68
2021/07/04 16:55:41;;;;;;;4.25;1.80;;;;;;;;;;8323433;28;20451;-69
2021/07/04 16:59:46;;;;;;;2.17;1.50;;;;;;;;;;8327118;28;20359;-68
2021/07/04 17:03:52;;;;;;;3.85;2.15;;;;;;;;;;8322842;28;20374;-69
2021/07/04 17:07:58;;;;;;;1.70;1.50;;;;;;;;;;8323933;28;20467;-68
2021/07/04 17:12:04;;;;;;;1.92;1.40;;;;;;;;;;8322534;28;20488;-69
2021/07/04 17:16:12;;;;;;;2.40;1.50;;;;;;;;;;8324594;28;20358;-69
2021/07/04 17:20:20;;;;;;;4.07;2.17;;;;;;;;;;8325012;28;20486;-69
2021/07/04 17:24:25;;;;;;;3.35;2.20;;;;;;;;;;8322632;28;20447;-68
2021/07/04 17:28:31;;;;;;;3.45;1.75;;;;;;;;;;8325035;28;20481;-68
2021/07/04 17:32:36;;;;;;;2.83;1.90;;;;;;;;;;8324028;28;20048;-69
2021/07/04 17:36:41;;;;;;;4.10;1.42;;;;;;;;;;8325419;28;20032;-70
2021/07/04 17:40:47;;;;;;;4.40;2.10;;;;;;;;;;8323162;28;20478;-69
2021/07/04 17:44:53;;;;;;;2.65;1.95;;;;;;;;;;8322326;28;20352;-69
2021/07/04 17:48:58;;;;;;;2.33;1.60;;;;;;;;;;8321264;28;20374;-69
2021/07/04 17:53:03;;;;;;;3.72;1.77;;;;;;;;;;8322301;28;20482;-68
2021/07/04 17:57:12;;;;;;;3.58;1.58;;;;;;;;;;8323588;28;20483;-69
2021/07/04 18:01:17;;;;;;;4.70;2.10;;;;;;;;;;8321966;28;20044;-69
2021/07/04 18:05:23;;;;;;;4.50;2.58;;;;;;;;;;8322750;28;20351;-68
2021/07/04 18:09:28;;;;;;;3.20;2.50;;;;;;;;;;8322809;28;20455;-69
2021/07/04 18:13:34;;;;;;;5.68;2.20;;;;;;;;;;8323970;28;20366;-68
2021/07/04 18:17:40;;;;;;;7.88;2.88;;;;;;;;;;8322793;28;20344;-68
2021/07/04 18:21:47;;;;;;;17.27;8.65;;;;;;;;;;8321881;28;20366;-67
2021/07/04 18:25:52;;;;;;;19.38;11.02;;;;;;;;;;8323803;28;20490;-68
2021/07/04 18:29:58;;;;;;;17.27;9.98;;;;;;;;;;8322521;28;20482;-69
2021/07/04 18:34:03;;;;;;;18.17;10.63;;;;;;;;;;8323180;28;20486;-68
2021/07/04 18:38:09;;;;;;;33.67;18.13;;;;;;;;;;8323447;28;20380;-68
2021/07/04 18:42:14;;;;;;;47.00;27.05;;;;;;;;;;8319768;28;20325;-68
2021/07/04 18:46:20;;;;;;;166.80;101.13;;;;;;;;;;8321560;28;20505;-72
2021/07/04 18:50:25;;;;;;;70.28;40.03;;;;;;;;;;8322342;28;20382;-70
2021/07/04 18:54:30;;;;;;;34.72;20.77;;;;;;;;;;8324136;28;20032;-72
2021/07/04 18:58:37;;;;;;;26.33;17.10;;;;;;;;;;8319926;28;20078;-70
2021/07/04 19:02:43;;;;;;;15.88;10.10;;;;;;;;;;8306896;28;20506;-71
2021/07/04 19:06:49;;;;;;;24.02;12.52;;;;;;;;;;8294428;28;20074;-70
2021/07/04 19:10:55;;;;;;;57.28;32.38;;;;;;;;;;8327772;28;20363;-69
2021/07/04 19:15:05;;;;;;;38.17;22.95;;;;;;;;;;8326063;28;20056;-70
2021/07/04 19:19:10;;;;;;;42.50;22.13;;;;;;;;;;8328196;28;20374;-70
2021/07/04 19:23:27;;;;;;;32.90;17.30;;;;;;;;;;8331105;28;20383;-70
2021/07/04 19:27:32;;;;;;;21.23;12.40;;;;;;;;;;8326140;28;20364;-71
2021/07/04 19:31:41;;;;;;;16.75;10.07;;;;;;;;;;8326605;28;20496;-70
2021/07/04 19:35:49;;;;;;;17.35;9.98;;;;;;;;;;8325947;28;20412;-69
2021/07/04 19:39:53;;;;;;;13.20;7.13;;;;;;;;;;8327263;28;20071;-71
2021/07/04 19:43:59;;;;;;;11.15;6.55;;;;;;;;;;8327643;28;20355;-69
2021/07/04 19:48:06;;;;;;;14.13;7.50;;;;;;;;;;8326669;28;20378;-71
2021/07/04 19:52:12;;;;;;;9.13;4.63;;;;;;;;;;8327041;28;20463;-70
2021/07/04 19:56:17;;;;;;;10.88;5.95;;;;;;;;;;8327701;28;20383;-70
2021/07/04 20:00:27;;;;;;;7.90;4.72;;;;;;;;;;8326969;28;20472;-70
2021/07/04 20:04:31;;;;;;;10.73;5.93;;;;;;;;;;8325906;28;20362;-70
2021/07/04 20:08:38;;;;;;;8.23;5.55;;;;;;;;;;8327563;28;20443;-69
2021/07/04 20:12:44;;;;;;;8.13;4.30;;;;;;;;;;8328784;28;20478;-70
2021/07/04 20:16:52;;;;;;;9.50;4.90;;;;;;;;;;8324240;28;20493;-70
2021/07/04 20:20:58;;;;;;;7.17;4.83;;;;;;;;;;8324561;28;20040;-70
2021/07/04 20:25:08;;;;;;;5.90;4.13;;;;;;;;;;8324554;28;20363;-70
2021/07/04 20:29:13;;;;;;;4.88;3.72;;;;;;;;;;8324096;28;20048;-70
2021/07/04 20:33:19;;;;;;;9.40;3.25;;;;;;;;;;8324115;28;20052;-70
2021/07/04 20:37:24;;;;;;;4.60;3.60;;;;;;;;;;8325692;28;20058;-71
2021/07/04 20:41:29;;;;;;;8.70;3.80;;;;;;;;;;8327076;28;20367;-69
2021/07/04 20:45:34;;;;;;;7.32;3.92;;;;;;;;;;8326330;28;20467;-70
2021/07/04 20:49:40;;;;;;;6.00;3.65;;;;;;;;;;8322852;28;20503;-70
2021/07/04 20:53:47;;;;;;;4.78;3.55;;;;;;;;;;8324397;28;20444;-70
2021/07/04 20:57:53;;;;;;;5.30;3.47;;;;;;;;;;8325933;28;20480;-71
2021/07/04 21:01:59;;;;;;;6.75;4.00;;;;;;;;;;8323931;28;20362;-70
2021/07/04 21:06:05;;;;;;;7.30;3.70;;;;;;;;;;8324379;28;20397;-70
2021/07/04 21:10:12;;;;;;;5.95;3.65;;;;;;;;;;8325513;28;20063;-70
2021/07/04 21:14:16;;;;;;;4.78;3.40;;;;;;;;;;8323959;28;20340;-69
2021/07/04 21:18:23;;;;;;;4.68;3.42;;;;;;;;;;8322501;28;20040;-70
2021/07/04 21:22:29;;;;;;;4.38;3.03;;;;;;;;;;8325598;28;20359;-71
2021/07/04 21:26:34;;;;;;;4.63;3.58;;;;;;;;;;8323448;28;20089;-70
2021/07/04 21:30:40;;;;;;;4.63;3.33;;;;;;;;;;8324210;28;20378;-70
2021/07/04 21:34:45;;;;;;;5.57;3.55;;;;;;;;;;8325221;28;20467;-70
2021/07/04 21:38:50;;;;;;;5.30;3.40;;;;;;;;;;8323490;28;20062;-70
2021/07/04 21:42:56;;;;;;;5.18;3.40;;;;;;;;;;8306244;28;20475;-70
2021/07/04 21:47:01;;;;;;;4.72;3.38;;;;;;;;;;8322975;28;20066;-70
2021/07/04 21:51:05;;;;;;;6.82;3.92;;;;;;;;;;8323889;28;20461;-70
2021/07/04 21:55:15;;;;;;;5.03;3.05;;;;;;;;;;8325884;28;20474;-71
2021/07/04 21:59:21;;;;;;;4.72;3.47;;;;;;;;;;8324487;28;20466;-70
2021/07/04 22:03:27;;;;;;;11.18;3.17;;;;;;;;;;8321075;28;20324;-70
2021/07/04 22:07:33;;;;;;;5.95;3.70;;;;;;;;;;8320868;28;20059;-70
2021/07/04 22:11:38;;;;;;;5.10;3.25;;;;;;;;;;8320960;28;20044;-70
2021/07/04 22:15:43;;;;;;;4.63;3.50;;;;;;;;;;8322293;28;20367;-69
2021/07/04 22:19:49;;;;;;;4.43;3.40;;;;;;;;;;8322700;28;20062;-71
2021/07/04 22:23:54;;;;;;;4.38;2.83;;;;;;;;;;8321476;28;20052;-70
2021/07/04 22:28:04;;;;;;;5.45;3.55;;;;;;;;;;8323528;28;20477;-70
2021/07/04 22:32:09;;;;;;;4.38;3.30;;;;;;;;;;8322962;28;20051;-71
2021/07/04 22:36:14;;;;;;;4.85;3.80;;;;;;;;;;8322162;28;20348;-70
2021/07/04 22:40:22;;;;;;;4.30;3.60;;;;;;;;;;8329095;28;20352;-70
2021/07/04 22:44:30;;;;;;;5.32;2.90;;;;;;;;;;8329753;28;20447;-70
2021/07/04 22:48:36;;;;;;;3.92;2.92;;;;;;;;;;8327043;28;20363;-70
2021/07/04 22:52:42;;;;;;;7.05;3.83;;;;;;;;;;8328856;28;20036;-70
2021/07/04 22:56:49;;;;;;;5.10;3.67;;;;;;;;;;8329632;28;20444;-70
2021/07/04 23:01:10;;;;;;;4.70;3.50;;;;;;;;;;8327247;28;20762;-70
2021/07/04 23:05:16;;;;;;;7.82;3.80;;;;;;;;;;8330733;28;20074;-69
2021/07/04 23:09:21;;;;;;;7.18;3.85;;;;;;;;;;8327238;28;20379;-70
2021/07/04 23:13:27;;;;;;;6.75;3.20;;;;;;;;;;8327940;28;20355;-70
2021/07/04 23:17:32;;;;;;;5.78;3.72;;;;;;;;;;8325139;28;20374;-71
2021/07/04 23:21:38;;;;;;;4.47;3.65;;;;;;;;;;8326922;28;20509;-73
2021/07/04 23:25:43;;;;;;;11.43;3.25;;;;;;;;;;8328102;28;20397;-70
2021/07/04 23:29:48;;;;;;;4.75;3.30;;;;;;;;;;8328777;28;20442;-70
2021/07/04 23:33:53;;;;;;;4.20;3.15;;;;;;;;;;8328159;28;20497;-70
2021/07/04 23:37:59;;;;;;;4.70;3.42;;;;;;;;;;8329337;28;20431;-70
2021/07/04 23:42:05;;;;;;;4.63;3.20;;;;;;;;;;8326310;28;20062;-70
2021/07/04 23:46:10;;;;;;;6.65;3.35;;;;;;;;;;8327482;28;20040;-70
2021/07/04 23:50:16;;;;;;;5.47;3.40;;;;;;;;;;8324081;28;20363;-70
2021/07/04 23:54:21;;;;;;;5.18;3.08;;;;;;;;;;8326636;28;20058;-69
2021/07/04 23:58:27;;;;;;;3.67;2.67;;;;;;;;;;8327885;28;20063;-70
